Current | Forecast
Updated: 11:30 PM CET on November 21, 2017
Observed at Asturias, Spain
Temperature 13°C
Humidity 51%
Dew Point 3°C
Wind SSW at 13 km/h
Pressure 1014 hPa (Steady)
Conditions Clear
Visibility -
UV N/A
Clouds
Yesterday's Maximum 18°C
Yesterday's Minimum 6°C approx.
Yesterday's Heating Degree Days 11 approx.
Sunrise8:25 AM CET
Sunset5:53 PM CET
Moon Rise10:47 AM CET
Moon Set8:24 PM CET
Moon PhaseMoon Phase
Waxing Crescent
Raw METARMETAR LEAS 212230Z 20007KT CAVOK 13/03 Q1014 NOSIG


Monday
. High: 69° F.
Tuesday
. High: 75° F.
Wednesday
. High: 60° F.
Thursday
. High: 62° F.
Friday
. High: 73° F.
Saturday
. High: 69° F.
Sunday
. High: 64° F.
Monday
. High: 77° F.

Click here for Marine Information
Scientific forecaster discussion (NWS)

Units: English | Metric

Find the Weather for any City, State or Zipcode, or Country:

U.S. State List | Severe Weather | Tropical Storms | Ski Conditions
United States | Canada | Central America | South America | Asia | Europe | Australia | Africa | Islands

Weather Underground

© Copyright 2017
The Weather Company, LLC